sensor_id;sensor_type;location;lat;lon;timestamp;P1;durP1;ratioP1;P2;durP2;ratioP2
65039;SDS011;51606;45.000;38.612;2023-04-15T00:01:49;0.57;;;0.50;;
65039;SDS011;51606;45.000;38.612;2023-04-15T00:04:15;0.38;;;0.38;;
65039;SDS011;51606;45.000;38.612;2023-04-15T00:06:41;0.40;;;0.40;;
65039;SDS011;51606;45.000;38.612;2023-04-15T00:09:07;0.30;;;0.30;;
65039;SDS011;51606;45.000;38.612;2023-04-15T00:11:34;0.68;;;0.40;;
65039;SDS011;51606;45.000;38.612;2023-04-15T00:14:00;0.30;;;0.30;;
65039;SDS011;51606;45.000;38.612;2023-04-15T00:16:27;1.08;;;0.50;;
65039;SDS011;51606;45.000;38.612;2023-04-15T00:18:53;0.60;;;0.57;;
65039;SDS011;51606;45.000;38.612;2023-04-15T00:21:20;0.30;;;0.30;;
65039;SDS011;51606;45.000;38.612;2023-04-15T00:23:46;0.20;;;0.20;;
65039;SDS011;51606;45.000;38.612;2023-04-15T00:26:17;0.40;;;0.40;;
65039;SDS011;51606;45.000;38.612;2023-04-15T00:28:46;0.10;;;0.10;;
65039;SDS011;51606;45.000;38.612;2023-04-15T00:31:12;0.82;;;0.80;;
65039;SDS011;51606;45.000;38.612;2023-04-15T00:33:39;0.55;;;0.50;;
65039;SDS011;51606;45.000;38.612;2023-04-15T00:36:06;0.47;;;0.38;;
65039;SDS011;51606;45.000;38.612;2023-04-15T00:38:33;0.38;;;0.38;;
65039;SDS011;51606;45.000;38.612;2023-04-15T00:40:59;0.40;;;0.40;;
65039;SDS011;51606;45.000;38.612;2023-04-15T00:43:27;0.55;;;0.50;;
65039;SDS011;51606;45.000;38.612;2023-04-15T00:45:54;0.20;;;0.20;;
65039;SDS011;51606;45.000;38.612;2023-04-15T00:48:23;0.40;;;0.40;;
65039;SDS011;51606;45.000;38.612;2023-04-15T00:50:50;0.32;;;0.30;;
65039;SDS011;51606;45.000;38.612;2023-04-15T00:53:17;0.38;;;0.38;;
65039;SDS011;51606;45.000;38.612;2023-04-15T00:55:43;0.17;;;0.10;;
65039;SDS011;51606;45.000;38.612;2023-04-15T00:58:10;0.30;;;0.30;;
65039;SDS011;51606;45.000;38.612;2023-04-15T01:00:36;0.55;;;0.28;;
65039;SDS011;51606;45.000;38.612;2023-04-15T01:03:03;4.60;;;0.60;;
65039;SDS011;51606;45.000;38.612;2023-04-15T01:05:29;0.00;;;0.00;;
65039;SDS011;51606;45.000;38.612;2023-04-15T01:07:56;0.30;;;0.30;;
65039;SDS011;51606;45.000;38.612;2023-04-15T01:10:23;0.65;;;0.55;;
65039;SDS011;51606;45.000;38.612;2023-04-15T01:12:49;0.95;;;0.90;;
65039;SDS011;51606;45.000;38.612;2023-04-15T01:15:17;0.30;;;0.30;;
65039;SDS011;51606;45.000;38.612;2023-04-15T01:17:43;0.38;;;0.35;;
65039;SDS011;51606;45.000;38.612;2023-04-15T01:20:09;0.35;;;0.35;;
65039;SDS011;51606;45.000;38.612;2023-04-15T01:22:36;0.30;;;0.30;;
65039;SDS011;51606;45.000;38.612;2023-04-15T01:25:14;0.38;;;0.38;;
65039;SDS011;51606;45.000;38.612;2023-04-15T01:27:44;0.40;;;0.40;;
65039;SDS011;51606;45.000;38.612;2023-04-15T01:30:10;0.88;;;0.45;;
65039;SDS011;51606;45.000;38.612;2023-04-15T01:32:37;0.22;;;0.22;;
65039;SDS011;51606;45.000;38.612;2023-04-15T01:35:03;0.32;;;0.30;;
65039;SDS011;51606;45.000;38.612;2023-04-15T01:37:30;0.35;;;0.35;;
65039;SDS011;51606;45.000;38.612;2023-04-15T01:39:57;0.57;;;0.50;;
65039;SDS011;51606;45.000;38.612;2023-04-15T01:42:24;0.30;;;0.30;;
65039;SDS011;51606;45.000;38.612;2023-04-15T01:44:50;0.20;;;0.20;;
65039;SDS011;51606;45.000;38.612;2023-04-15T01:47:18;0.30;;;0.30;;
65039;SDS011;51606;45.000;38.612;2023-04-15T01:49:44;0.50;;;0.38;;
65039;SDS011;51606;45.000;38.612;2023-04-15T01:52:11;0.20;;;0.20;;
65039;SDS011;51606;45.000;38.612;2023-04-15T01:54:39;0.38;;;0.38;;
65039;SDS011;51606;45.000;38.612;2023-04-15T01:57:05;0.20;;;0.20;;
65039;SDS011;51606;45.000;38.612;2023-04-15T01:59:32;0.20;;;0.20;;
65039;SDS011;51606;45.000;38.612;2023-04-15T02:01:58;0.52;;;0.45;;
65039;SDS011;51606;45.000;38.612;2023-04-15T02:04:26;0.73;;;0.40;;
65039;SDS011;51606;45.000;38.612;2023-04-15T02:06:52;0.10;;;0.10;;
65039;SDS011;51606;45.000;38.612;2023-04-15T02:09:20;1.02;;;0.75;;
65039;SDS011;51606;45.000;38.612;2023-04-15T02:11:47;0.45;;;0.45;;
65039;SDS011;51606;45.000;38.612;2023-04-15T02:14:13;0.60;;;0.40;;
65039;SDS011;51606;45.000;38.612;2023-04-15T02:16:40;0.75;;;0.75;;
65039;SDS011;51606;45.000;38.612;2023-04-15T02:19:06;0.50;;;0.50;;
65039;SDS011;51606;45.000;38.612;2023-04-15T02:21:32;3.28;;;1.00;;
65039;SDS011;51606;45.000;38.612;2023-04-15T02:23:59;0.43;;;0.43;;
65039;SDS011;51606;45.000;38.612;2023-04-15T02:26:27;1.45;;;0.20;;
65039;SDS011;51606;45.000;38.612;2023-04-15T02:28:56;0.63;;;0.50;;
65039;SDS011;51606;45.000;38.612;2023-04-15T02:31:23;0.20;;;0.20;;
65039;SDS011;51606;45.000;38.612;2023-04-15T02:33:51;0.20;;;0.20;;
65039;SDS011;51606;45.000;38.612;2023-04-15T02:36:17;0.20;;;0.20;;
65039;SDS011;51606;45.000;38.612;2023-04-15T02:38:45;0.20;;;0.20;;
65039;SDS011;51606;45.000;38.612;2023-04-15T02:41:13;1.55;;;0.63;;
65039;SDS011;51606;45.000;38.612;2023-04-15T02:43:41;0.60;;;0.60;;
65039;SDS011;51606;45.000;38.612;2023-04-15T02:46:08;0.35;;;0.35;;
65039;SDS011;51606;45.000;38.612;2023-04-15T02:48:39;2.50;;;0.80;;
65039;SDS011;51606;45.000;38.612;2023-04-15T02:51:15;0.38;;;0.22;;
65039;SDS011;51606;45.000;38.612;2023-04-15T02:53:46;0.13;;;0.13;;
65039;SDS011;51606;45.000;38.612;2023-04-15T02:56:13;4.90;;;2.10;;
65039;SDS011;51606;45.000;38.612;2023-04-15T02:58:42;2.33;;;2.08;;
65039;SDS011;51606;45.000;38.612;2023-04-15T03:01:09;27.92;;;11.75;;
65039;SDS011;51606;45.000;38.612;2023-04-15T03:03:37;67.03;;;22.90;;
65039;SDS011;51606;45.000;38.612;2023-04-15T03:06:03;49.05;;;20.60;;
65039;SDS011;51606;45.000;38.612;2023-04-15T03:08:30;21.20;;;12.23;;
65039;SDS011;51606;45.000;38.612;2023-04-15T03:10:57;34.33;;;12.30;;
65039;SDS011;51606;45.000;38.612;2023-04-15T03:13:26;25.60;;;10.10;;
65039;SDS011;51606;45.000;38.612;2023-04-15T03:15:54;9.20;;;5.25;;
65039;SDS011;51606;45.000;38.612;2023-04-15T03:18:22;2.92;;;2.35;;
65039;SDS011;51606;45.000;38.612;2023-04-15T03:20:48;13.32;;;4.55;;
65039;SDS011;51606;45.000;38.612;2023-04-15T03:23:16;3.08;;;2.58;;
65039;SDS011;51606;45.000;38.612;2023-04-15T03:25:43;3.92;;;2.78;;
65039;SDS011;51606;45.000;38.612;2023-04-15T03:28:11;4.00;;;2.08;;
65039;SDS011;51606;45.000;38.612;2023-04-15T03:30:37;1.75;;;1.40;;
65039;SDS011;51606;45.000;38.612;2023-04-15T03:33:10;1.23;;;1.13;;
65039;SDS011;51606;45.000;38.612;2023-04-15T03:35:37;2.00;;;1.00;;
65039;SDS011;51606;45.000;38.612;2023-04-15T03:38:04;7.43;;;1.50;;
65039;SDS011;51606;45.000;38.612;2023-04-15T03:40:30;1.58;;;1.15;;
65039;SDS011;51606;45.000;38.612;2023-04-15T03:42:57;0.50;;;0.50;;
65039;SDS011;51606;45.000;38.612;2023-04-15T03:45:24;2.50;;;0.90;;
65039;SDS011;51606;45.000;38.612;2023-04-15T03:47:50;4.60;;;1.08;;
65039;SDS011;51606;45.000;38.612;2023-04-15T03:50:17;0.65;;;0.65;;
65039;SDS011;51606;45.000;38.612;2023-04-15T03:52:43;1.40;;;1.13;;
65039;SDS011;51606;45.000;38.612;2023-04-15T03:55:10;1.27;;;1.13;;
65039;SDS011;51606;45.000;38.612;2023-04-15T03:57:36;1.25;;;0.90;;
65039;SDS011;51606;45.000;38.612;2023-04-15T04:00:04;2.40;;;1.00;;
65039;SDS011;51606;45.000;38.612;2023-04-15T04:02:37;0.98;;;0.90;;
65039;SDS011;51606;45.000;38.612;2023-04-15T04:05:03;1.80;;;0.85;;
65039;SDS011;51606;45.000;38.612;2023-04-15T04:07:30;1.38;;;0.90;;
65039;SDS011;51606;45.000;38.612;2023-04-15T04:09:57;1.80;;;1.13;;
65039;SDS011;51606;45.000;38.612;2023-04-15T04:12:23;0.80;;;0.80;;
65039;SDS011;51606;45.000;38.612;2023-04-15T04:14:49;2.28;;;1.40;;
65039;SDS011;51606;45.000;38.612;2023-04-15T04:17:16;0.70;;;0.70;;
65039;SDS011;51606;45.000;38.612;2023-04-15T04:19:42;1.92;;;0.88;;
65039;SDS011;51606;45.000;38.612;2023-04-15T04:22:08;0.90;;;0.80;;
65039;SDS011;51606;45.000;38.612;2023-04-15T04:24:35;0.90;;;0.82;;
65039;SDS011;51606;45.000;38.612;2023-04-15T04:27:01;1.63;;;1.00;;
65039;SDS011;51606;45.000;38.612;2023-04-15T04:29:27;0.95;;;0.88;;
65039;SDS011;51606;45.000;38.612;2023-04-15T04:31:54;3.13;;;1.15;;
65039;SDS011;51606;45.000;38.612;2023-04-15T04:34:20;0.85;;;0.80;;
65039;SDS011;51606;45.000;38.612;2023-04-15T04:36:46;1.10;;;0.95;;
65039;SDS011;51606;45.000;38.612;2023-04-15T04:39:13;1.40;;;1.10;;
65039;SDS011;51606;45.000;38.612;2023-04-15T04:41:39;0.82;;;0.80;;
65039;SDS011;51606;45.000;38.612;2023-04-15T04:44:06;1.40;;;0.98;;
65039;SDS011;51606;45.000;38.612;2023-04-15T04:46:32;1.00;;;0.90;;
65039;SDS011;51606;45.000;38.612;2023-04-15T04:48:59;1.20;;;0.75;;
65039;SDS011;51606;45.000;38.612;2023-04-15T04:51:25;1.17;;;1.08;;
65039;SDS011;51606;45.000;38.612;2023-04-15T04:53:52;1.52;;;0.93;;
65039;SDS011;51606;45.000;38.612;2023-04-15T04:56:19;0.80;;;0.80;;
65039;SDS011;51606;45.000;38.612;2023-04-15T04:58:46;0.80;;;0.80;;
65039;SDS011;51606;45.000;38.612;2023-04-15T05:01:12;3.88;;;1.00;;
65039;SDS011;51606;45.000;38.612;2023-04-15T05:03:39;1.05;;;0.80;;
65039;SDS011;51606;45.000;38.612;2023-04-15T05:06:06;0.93;;;0.82;;
65039;SDS011;51606;45.000;38.612;2023-04-15T05:08:33;1.42;;;0.80;;
65039;SDS011;51606;45.000;38.612;2023-04-15T05:10:59;1.20;;;0.90;;
65039;SDS011;51606;45.000;38.612;2023-04-15T05:13:26;5.43;;;1.30;;
65039;SDS011;51606;45.000;38.612;2023-04-15T05:15:53;4.00;;;1.25;;
65039;SDS011;51606;45.000;38.612;2023-04-15T05:18:19;1.38;;;0.85;;
65039;SDS011;51606;45.000;38.612;2023-04-15T05:20:45;4.15;;;1.20;;
65039;SDS011;51606;45.000;38.612;2023-04-15T05:23:14;3.17;;;0.93;;
65039;SDS011;51606;45.000;38.612;2023-04-15T05:25:42;0.68;;;0.63;;
65039;SDS011;51606;45.000;38.612;2023-04-15T05:28:08;2.38;;;0.93;;
65039;SDS011;51606;45.000;38.612;2023-04-15T05:30:35;0.98;;;0.70;;
65039;SDS011;51606;45.000;38.612;2023-04-15T05:44:22;3.80;;;0.90;;
65039;SDS011;51606;45.000;38.612;2023-04-15T05:46:49;1.45;;;0.93;;
65039;SDS011;51606;45.000;38.612;2023-04-15T05:49:16;1.00;;;0.90;;
65039;SDS011;51606;45.000;38.612;2023-04-15T05:51:42;1.25;;;0.70;;
65039;SDS011;51606;45.000;38.612;2023-04-15T05:54:09;5.47;;;0.75;;
65039;SDS011;51606;45.000;38.612;2023-04-15T05:56:35;1.00;;;0.90;;
65039;SDS011;51606;45.000;38.612;2023-04-15T05:59:01;1.52;;;0.90;;
65039;SDS011;51606;45.000;38.612;2023-04-15T06:01:28;0.90;;;0.80;;
65039;SDS011;51606;45.000;38.612;2023-04-15T06:03:55;0.95;;;0.80;;
65039;SDS011;51606;45.000;38.612;2023-04-15T06:06:21;1.60;;;0.90;;
65039;SDS011;51606;45.000;38.612;2023-04-15T06:08:48;0.68;;;0.63;;
65039;SDS011;51606;45.000;38.612;2023-04-15T06:11:14;1.98;;;0.75;;
65039;SDS011;51606;45.000;38.612;2023-04-15T06:13:40;1.48;;;1.00;;
65039;SDS011;51606;45.000;38.612;2023-04-15T06:16:07;1.25;;;0.80;;
65039;SDS011;51606;45.000;38.612;2023-04-15T06:18:33;2.95;;;1.20;;
65039;SDS011;51606;45.000;38.612;2023-04-15T06:20:59;1.33;;;1.00;;
65039;SDS011;51606;45.000;38.612;2023-04-15T06:23:26;10.90;;;0.90;;
65039;SDS011;51606;45.000;38.612;2023-04-15T06:25:52;7.97;;;1.20;;
65039;SDS011;51606;45.000;38.612;2023-04-15T06:28:18;0.80;;;0.80;;
65039;SDS011;51606;45.000;38.612;2023-04-15T06:30:45;1.20;;;1.00;;
65039;SDS011;51606;45.000;38.612;2023-04-15T06:33:11;5.13;;;1.27;;
65039;SDS011;51606;45.000;38.612;2023-04-15T06:35:38;1.63;;;0.90;;
65039;SDS011;51606;45.000;38.612;2023-04-15T06:38:04;1.75;;;0.98;;
65039;SDS011;51606;45.000;38.612;2023-04-15T06:40:31;0.70;;;0.70;;
65039;SDS011;51606;45.000;38.612;2023-04-15T06:42:57;4.93;;;1.13;;
65039;SDS011;51606;45.000;38.612;2023-04-15T06:45:24;6.88;;;1.10;;
65039;SDS011;51606;45.000;38.612;2023-04-15T06:47:51;1.15;;;0.80;;
65039;SDS011;51606;45.000;38.612;2023-04-15T06:50:17;1.25;;;0.95;;
65039;SDS011;51606;45.000;38.612;2023-04-15T06:52:43;1.65;;;0.80;;
65039;SDS011;51606;45.000;38.612;2023-04-15T06:55:10;4.30;;;1.25;;
65039;SDS011;51606;45.000;38.612;2023-04-15T06:57:37;0.70;;;0.70;;
65039;SDS011;51606;45.000;38.612;2023-04-15T07:00:03;5.03;;;1.10;;
65039;SDS011;51606;45.000;38.612;2023-04-15T07:02:30;2.63;;;0.93;;
65039;SDS011;51606;45.000;38.612;2023-04-15T07:04:56;3.17;;;0.98;;
65039;SDS011;51606;45.000;38.612;2023-04-15T07:07:23;2.00;;;0.90;;
65039;SDS011;51606;45.000;38.612;2023-04-15T07:09:50;4.90;;;1.35;;
65039;SDS011;51606;45.000;38.612;2023-04-15T07:12:18;1.52;;;1.10;;
65039;SDS011;51606;45.000;38.612;2023-04-15T07:14:45;1.20;;;0.90;;
65039;SDS011;51606;45.000;38.612;2023-04-15T07:17:11;4.80;;;1.60;;
65039;SDS011;51606;45.000;38.612;2023-04-15T07:19:37;0.90;;;0.75;;
65039;SDS011;51606;45.000;38.612;2023-04-15T07:22:04;1.60;;;0.90;;
65039;SDS011;51606;45.000;38.612;2023-04-15T07:24:30;3.40;;;0.80;;
65039;SDS011;51606;45.000;38.612;2023-04-15T07:26:56;4.50;;;0.90;;
65039;SDS011;51606;45.000;38.612;2023-04-15T07:29:23;0.90;;;0.80;;
65039;SDS011;51606;45.000;38.612;2023-04-15T07:31:50;1.33;;;1.08;;
65039;SDS011;51606;45.000;38.612;2023-04-15T07:34:18;5.70;;;1.30;;
65039;SDS011;51606;45.000;38.612;2023-04-15T07:36:45;1.45;;;1.05;;
65039;SDS011;51606;45.000;38.612;2023-04-15T07:39:15;1.60;;;0.95;;
65039;SDS011;51606;45.000;38.612;2023-04-15T07:41:41;1.40;;;0.90;;
65039;SDS011;51606;45.000;38.612;2023-04-15T07:44:08;5.85;;;1.20;;
65039;SDS011;51606;45.000;38.612;2023-04-15T07:46:34;1.10;;;1.00;;
65039;SDS011;51606;45.000;38.612;2023-04-15T07:49:02;5.78;;;1.45;;
65039;SDS011;51606;45.000;38.612;2023-04-15T07:51:28;2.22;;;1.15;;
65039;SDS011;51606;45.000;38.612;2023-04-15T07:53:55;1.95;;;0.98;;
65039;SDS011;51606;45.000;38.612;2023-04-15T07:56:21;1.10;;;0.98;;
65039;SDS011;51606;45.000;38.612;2023-04-15T07:58:48;2.50;;;1.00;;
65039;SDS011;51606;45.000;38.612;2023-04-15T08:01:14;0.95;;;0.85;;
65039;SDS011;51606;45.000;38.612;2023-04-15T08:03:41;2.90;;;1.10;;
65039;SDS011;51606;45.000;38.612;2023-04-15T08:06:07;1.13;;;1.00;;
65039;SDS011;51606;45.000;38.612;2023-04-15T08:08:34;1.85;;;1.08;;
65039;SDS011;51606;45.000;38.612;2023-04-15T08:11:00;1.63;;;1.10;;
65039;SDS011;51606;45.000;38.612;2023-04-15T08:13:26;1.98;;;1.13;;
65039;SDS011;51606;45.000;38.612;2023-04-15T08:18:57;1.48;;;0.90;;
65039;SDS011;51606;45.000;38.612;2023-04-15T08:21:24;2.28;;;1.20;;
65039;SDS011;51606;45.000;38.612;2023-04-15T08:23:51;8.00;;;1.52;;
65039;SDS011;51606;45.000;38.612;2023-04-15T08:26:18;2.45;;;1.05;;
65039;SDS011;51606;45.000;38.612;2023-04-15T08:28:45;1.70;;;1.08;;
65039;SDS011;51606;45.000;38.612;2023-04-15T08:31:13;1.88;;;1.00;;
65039;SDS011;51606;45.000;38.612;2023-04-15T08:33:41;2.65;;;1.42;;
65039;SDS011;51606;45.000;38.612;2023-04-15T08:36:07;3.30;;;1.10;;
65039;SDS011;51606;45.000;38.612;2023-04-15T08:38:34;1.60;;;0.98;;
65039;SDS011;51606;45.000;38.612;2023-04-15T08:41:03;2.55;;;1.20;;
65039;SDS011;51606;45.000;38.612;2023-04-15T08:43:45;1.13;;;0.98;;
65039;SDS011;51606;45.000;38.612;2023-04-15T08:46:16;0.80;;;0.80;;
65039;SDS011;51606;45.000;38.612;2023-04-15T08:48:43;1.45;;;1.00;;
65039;SDS011;51606;45.000;38.612;2023-04-15T08:51:13;2.28;;;1.73;;
65039;SDS011;51606;45.000;38.612;2023-04-15T08:53:41;3.85;;;1.25;;
65039;SDS011;51606;45.000;38.612;2023-04-15T08:56:13;2.47;;;0.80;;
65039;SDS011;51606;45.000;38.612;2023-04-15T08:58:44;1.23;;;1.00;;
65039;SDS011;51606;45.000;38.612;2023-04-15T09:01:12;1.45;;;0.90;;
65039;SDS011;51606;45.000;38.612;2023-04-15T09:03:38;2.35;;;1.42;;
65039;SDS011;51606;45.000;38.612;2023-04-15T09:06:06;1.42;;;1.10;;
65039;SDS011;51606;45.000;38.612;2023-04-15T09:08:38;2.15;;;1.30;;
65039;SDS011;51606;45.000;38.612;2023-04-15T09:11:04;1.75;;;1.13;;
65039;SDS011;51606;45.000;38.612;2023-04-15T09:13:31;1.40;;;1.20;;
65039;SDS011;51606;45.000;38.612;2023-04-15T09:16:00;1.70;;;1.00;;
65039;SDS011;51606;45.000;38.612;2023-04-15T09:18:28;1.85;;;1.05;;
65039;SDS011;51606;45.000;38.612;2023-04-15T09:21:02;3.70;;;2.10;;
65039;SDS011;51606;45.000;38.612;2023-04-15T09:23:37;3.80;;;1.20;;
65039;SDS011;51606;45.000;38.612;2023-04-15T09:26:06;1.40;;;0.90;;
65039;SDS011;51606;45.000;38.612;2023-04-15T09:28:33;11.35;;;1.35;;
65039;SDS011;51606;45.000;38.612;2023-04-15T09:31:07;2.80;;;1.25;;
65039;SDS011;51606;45.000;38.612;2023-04-15T09:33:34;2.35;;;1.38;;
65039;SDS011;51606;45.000;38.612;2023-04-15T09:36:06;3.97;;;1.45;;
65039;SDS011;51606;45.000;38.612;2023-04-15T09:38:33;2.92;;;1.50;;
65039;SDS011;51606;45.000;38.612;2023-04-15T09:40:59;1.23;;;1.13;;
65039;SDS011;51606;45.000;38.612;2023-04-15T09:43:38;1.20;;;1.00;;
65039;SDS011;51606;45.000;38.612;2023-04-15T09:46:05;3.17;;;1.70;;
65039;SDS011;51606;45.000;38.612;2023-04-15T09:48:31;2.35;;;1.35;;
65039;SDS011;51606;45.000;38.612;2023-04-15T09:50:58;3.08;;;1.48;;
65039;SDS011;51606;45.000;38.612;2023-04-15T09:53:26;1.48;;;1.20;;
65039;SDS011;51606;45.000;38.612;2023-04-15T09:55:56;2.08;;;1.33;;
65039;SDS011;51606;45.000;38.612;2023-04-15T09:58:29;1.30;;;1.10;;
65039;SDS011;51606;45.000;38.612;2023-04-15T10:00:58;4.72;;;1.30;;
65039;SDS011;51606;45.000;38.612;2023-04-15T10:03:25;3.30;;;1.25;;
65039;SDS011;51606;45.000;38.612;2023-04-15T10:05:54;3.25;;;1.52;;
65039;SDS011;51606;45.000;38.612;2023-04-15T10:08:22;4.38;;;1.63;;
65039;SDS011;51606;45.000;38.612;2023-04-15T10:10:50;1.42;;;1.20;;
65039;SDS011;51606;45.000;38.612;2023-04-15T10:13:18;3.38;;;1.70;;
65039;SDS011;51606;45.000;38.612;2023-04-15T10:18:26;1.77;;;1.40;;
65039;SDS011;51606;45.000;38.612;2023-04-15T10:20:53;4.88;;;1.35;;
65039;SDS011;51606;45.000;38.612;2023-04-15T10:23:21;1.95;;;1.42;;
65039;SDS011;51606;45.000;38.612;2023-04-15T10:25:50;6.15;;;1.48;;
65039;SDS011;51606;45.000;38.612;2023-04-15T10:28:20;1.60;;;1.35;;
65039;SDS011;51606;45.000;38.612;2023-04-15T10:30:47;2.35;;;1.42;;
65039;SDS011;51606;45.000;38.612;2023-04-15T10:33:16;4.38;;;2.15;;
65039;SDS011;51606;45.000;38.612;2023-04-15T10:35:46;8.32;;;1.60;;
65039;SDS011;51606;45.000;38.612;2023-04-15T10:41:12;1.95;;;1.50;;
65039;SDS011;51606;45.000;38.612;2023-04-15T10:46:35;2.30;;;1.30;;
65039;SDS011;51606;45.000;38.612;2023-04-15T10:49:26;3.85;;;1.70;;
65039;SDS011;51606;45.000;38.612;2023-04-15T10:51:56;2.33;;;1.50;;
65039;SDS011;51606;45.000;38.612;2023-04-15T10:56:50;3.70;;;1.90;;
65039;SDS011;51606;45.000;38.612;2023-04-15T10:59:35;2.85;;;1.55;;
65039;SDS011;51606;45.000;38.612;2023-04-15T11:02:04;3.90;;;1.98;;
65039;SDS011;51606;45.000;38.612;2023-04-15T11:13:16;3.90;;;2.08;;
65039;SDS011;51606;45.000;38.612;2023-04-15T11:15:47;2.28;;;1.42;;
65039;SDS011;51606;45.000;38.612;2023-04-15T11:18:15;2.35;;;1.58;;
65039;SDS011;51606;45.000;38.612;2023-04-15T11:20:45;2.30;;;1.30;;
65039;SDS011;51606;45.000;38.612;2023-04-15T11:23:41;2.88;;;1.75;;
65039;SDS011;51606;45.000;38.612;2023-04-15T11:26:11;2.60;;;1.77;;
65039;SDS011;51606;45.000;38.612;2023-04-15T11:28:42;2.72;;;1.58;;
65039;SDS011;51606;45.000;38.612;2023-04-15T11:31:16;3.42;;;1.90;;
65039;SDS011;51606;45.000;38.612;2023-04-15T11:33:45;4.80;;;1.58;;
65039;SDS011;51606;45.000;38.612;2023-04-15T11:36:18;2.72;;;1.50;;
65039;SDS011;51606;45.000;38.612;2023-04-15T11:38:47;2.17;;;1.60;;
65039;SDS011;51606;45.000;38.612;2023-04-15T11:41:18;2.60;;;1.45;;
65039;SDS011;51606;45.000;38.612;2023-04-15T11:55:23;3.13;;;1.67;;
65039;SDS011;51606;45.000;38.612;2023-04-15T11:58:04;2.58;;;2.03;;
65039;SDS011;51606;45.000;38.612;2023-04-15T12:00:45;3.17;;;1.80;;
65039;SDS011;51606;45.000;38.612;2023-04-15T12:03:14;5.90;;;1.73;;
65039;SDS011;51606;45.000;38.612;2023-04-15T12:06:10;4.22;;;1.92;;
65039;SDS011;51606;45.000;38.612;2023-04-15T12:11:47;4.35;;;1.38;;
65039;SDS011;51606;45.000;38.612;2023-04-15T12:14:33;2.33;;;1.73;;
65039;SDS011;51606;45.000;38.612;2023-04-15T12:17:00;2.50;;;1.35;;
65039;SDS011;51606;45.000;38.612;2023-04-15T12:19:34;2.72;;;1.80;;
65039;SDS011;51606;45.000;38.612;2023-04-15T12:22:03;2.95;;;1.67;;
65039;SDS011;51606;45.000;38.612;2023-04-15T12:24:31;2.42;;;1.70;;
65039;SDS011;51606;45.000;38.612;2023-04-15T12:27:02;5.65;;;1.92;;
65039;SDS011;51606;45.000;38.612;2023-04-15T12:29:31;5.57;;;2.08;;
65039;SDS011;51606;45.000;38.612;2023-04-15T12:32:08;3.67;;;2.03;;
65039;SDS011;51606;45.000;38.612;2023-04-15T12:37:04;19.90;;;1.30;;
65039;SDS011;51606;45.000;38.612;2023-04-15T12:39:36;1.05;;;0.95;;
65039;SDS011;51606;45.000;38.612;2023-04-15T12:42:07;4.65;;;2.13;;
65039;SDS011;51606;45.000;38.612;2023-04-15T12:44:34;1.83;;;1.42;;
65039;SDS011;51606;45.000;38.612;2023-04-15T12:47:02;1.13;;;1.02;;
65039;SDS011;51606;45.000;38.612;2023-04-15T12:49:29;3.20;;;1.58;;
65039;SDS011;51606;45.000;38.612;2023-04-15T12:51:57;1.50;;;1.00;;
65039;SDS011;51606;45.000;38.612;2023-04-15T12:54:25;6.85;;;1.75;;
65039;SDS011;51606;45.000;38.612;2023-04-15T12:56:52;6.10;;;2.50;;
65039;SDS011;51606;45.000;38.612;2023-04-15T12:59:20;3.88;;;1.90;;
65039;SDS011;51606;45.000;38.612;2023-04-15T13:01:48;6.35;;;2.47;;
65039;SDS011;51606;45.000;38.612;2023-04-15T13:04:16;3.40;;;1.90;;
65039;SDS011;51606;45.000;38.612;2023-04-15T13:06:43;2.92;;;2.05;;
65039;SDS011;51606;45.000;38.612;2023-04-15T13:09:09;1.35;;;1.02;;
65039;SDS011;51606;45.000;38.612;2023-04-15T13:11:36;2.63;;;1.20;;
65039;SDS011;51606;45.000;38.612;2023-04-15T13:14:03;2.55;;;1.73;;
65039;SDS011;51606;45.000;38.612;2023-04-15T13:16:31;4.20;;;2.20;;
65039;SDS011;51606;45.000;38.612;2023-04-15T13:18:58;5.50;;;2.20;;
65039;SDS011;51606;45.000;38.612;2023-04-15T13:21:25;3.03;;;1.52;;
65039;SDS011;51606;45.000;38.612;2023-04-15T13:23:51;3.45;;;1.83;;
65039;SDS011;51606;45.000;38.612;2023-04-15T13:26:18;10.23;;;1.85;;
65039;SDS011;51606;45.000;38.612;2023-04-15T13:28:45;2.50;;;1.60;;
65039;SDS011;51606;45.000;38.612;2023-04-15T13:31:12;2.45;;;1.58;;
65039;SDS011;51606;45.000;38.612;2023-04-15T13:33:38;2.85;;;1.70;;
65039;SDS011;51606;45.000;38.612;2023-04-15T13:36:05;4.72;;;1.88;;
65039;SDS011;51606;45.000;38.612;2023-04-15T13:38:31;3.38;;;1.88;;
65039;SDS011;51606;45.000;38.612;2023-04-15T13:40:58;1.65;;;1.30;;
65039;SDS011;51606;45.000;38.612;2023-04-15T13:43:24;3.10;;;1.83;;
65039;SDS011;51606;45.000;38.612;2023-04-15T13:45:50;5.57;;;2.28;;
65039;SDS011;51606;45.000;38.612;2023-04-15T17:57:27;12.15;;;1.63;;
65039;SDS011;51606;45.000;38.612;2023-04-15T17:59:55;4.13;;;1.27;;
65039;SDS011;51606;45.000;38.612;2023-04-15T18:02:21;2.28;;;1.48;;
65039;SDS011;51606;45.000;38.612;2023-04-15T18:04:47;4.38;;;1.63;;
65039;SDS011;51606;45.000;38.612;2023-04-15T18:07:14;1.92;;;1.52;;
65039;SDS011;51606;45.000;38.612;2023-04-15T18:09:40;1.30;;;1.00;;
65039;SDS011;51606;45.000;38.612;2023-04-15T18:12:08;2.70;;;1.10;;
65039;SDS011;51606;45.000;38.612;2023-04-15T18:14:35;1.65;;;1.00;;
65039;SDS011;51606;45.000;38.612;2023-04-15T18:17:01;1.35;;;1.02;;
65039;SDS011;51606;45.000;38.612;2023-04-15T18:19:28;1.92;;;1.50;;
65039;SDS011;51606;45.000;38.612;2023-04-15T18:21:55;2.22;;;1.42;;
65039;SDS011;51606;45.000;38.612;2023-04-15T18:24:21;1.27;;;1.00;;
65039;SDS011;51606;45.000;38.612;2023-04-15T18:26:47;6.85;;;1.40;;
65039;SDS011;51606;45.000;38.612;2023-04-15T18:29:14;2.10;;;1.38;;
65039;SDS011;51606;45.000;38.612;2023-04-15T18:31:40;1.83;;;1.27;;
65039;SDS011;51606;45.000;38.612;2023-04-15T18:34:07;1.90;;;1.38;;
65039;SDS011;51606;45.000;38.612;2023-04-15T18:36:33;1.90;;;1.48;;
65039;SDS011;51606;45.000;38.612;2023-04-15T18:39:00;3.90;;;1.13;;
65039;SDS011;51606;45.000;38.612;2023-04-15T18:41:26;2.15;;;1.50;;
65039;SDS011;51606;45.000;38.612;2023-04-15T18:43:52;2.08;;;1.42;;
65039;SDS011;51606;45.000;38.612;2023-04-15T18:46:20;4.70;;;1.75;;
65039;SDS011;51606;45.000;38.612;2023-04-15T18:48:47;1.75;;;1.33;;
65039;SDS011;51606;45.000;38.612;2023-04-15T18:51:13;2.60;;;1.48;;
65039;SDS011;51606;45.000;38.612;2023-04-15T18:53:40;1.70;;;1.08;;
65039;SDS011;51606;45.000;38.612;2023-04-15T18:56:06;6.43;;;2.03;;
65039;SDS011;51606;45.000;38.612;2023-04-15T18:58:33;19.98;;;2.00;;
65039;SDS011;51606;45.000;38.612;2023-04-15T19:00:59;3.60;;;2.10;;
65039;SDS011;51606;45.000;38.612;2023-04-15T19:03:25;2.10;;;1.20;;
65039;SDS011;51606;45.000;38.612;2023-04-15T19:05:52;1.95;;;1.58;;
65039;SDS011;51606;45.000;38.612;2023-04-15T19:08:18;5.38;;;1.95;;
65039;SDS011;51606;45.000;38.612;2023-04-15T19:10:44;2.92;;;1.73;;
65039;SDS011;51606;45.000;38.612;2023-04-15T19:13:11;2.40;;;1.45;;
65039;SDS011;51606;45.000;38.612;2023-04-15T19:15:37;1.83;;;1.25;;
65039;SDS011;51606;45.000;38.612;2023-04-15T19:18:04;1.98;;;1.42;;
65039;SDS011;51606;45.000;38.612;2023-04-15T19:20:38;1.25;;;1.15;;
65039;SDS011;51606;45.000;38.612;2023-04-15T19:23:04;2.30;;;1.42;;
65039;SDS011;51606;45.000;38.612;2023-04-15T19:25:31;2.85;;;1.15;;
65039;SDS011;51606;45.000;38.612;2023-04-15T19:27:57;7.68;;;1.52;;
65039;SDS011;51606;45.000;38.612;2023-04-15T19:30:24;2.05;;;1.23;;
65039;SDS011;51606;45.000;38.612;2023-04-15T19:32:50;2.60;;;1.40;;
65039;SDS011;51606;45.000;38.612;2023-04-15T19:35:17;1.20;;;1.10;;
65039;SDS011;51606;45.000;38.612;2023-04-15T19:37:43;3.95;;;1.40;;